Historyczne dane pomiarowe

Dodano dane terminowe – wersja testowa.

Dane z okresu 1951-2018

Wersja bazy: 1.27 [2018-11-28, lista zmian], aktualizacja planowana na 2018-12-07

Dane meteo z obszaru Polski uzyskane na podstawie danych udostępnionych przez Instytut Meteorologii i Gospodarki Wodnej – Państwowy Instytut Badawczy.

 

Wybierz Datę:    

       

TemperaturaWilgotnośćWiatrCiśnienieOpadyŚniegCzas trwania zjawisk
 Stacja t tx tn tng RH VA  wxwx mslp ppp RRR   cm mm wxwxwxwxwxwxwx
1978-11-08 1.2 5.1 -1.2- 98.8- 7.7 1.0---- 0.0------------
1978-11-09 -0.1 1.0 -0.6- 97.5- 8.0 2.0---- 0.0------------
1978-11-10 -0.6 0.2 -1.6- 94.0- 8.0 1.7---- 0.0------------
1978-11-11 -2.1 -1.0 -3.0- 90.0- 8.0 2.0---- 0.0------------
1978-11-12 -3.0 -2.0 -3.6- 89.8- 8.0 2.7---- 0.0------------
1978-11-13 -3.1 -2.0 -4.0- 84.3- 7.7 3.0---- 0.0------------
1978-11-14 -2.5 -1.0 -4.2- 87.8- 8.0 0.0---- 0.0------------
1978-11-15 -2.4 -1.6 -3.4- 88.3- 8.0 2.3---- 0.0------------
1978-11-16 -1.3 0.2 -2.6- 92.0- 8.0 3.3---- 0.0------------
1978-11-17 -0.3 5.9 -3.8- 81.8- 1.3 1.3---- 0.0------------
1978-11-18 -2.0 -0.8 -2.4- 89.8- 8.0 3.0---- 0.0------------
1978-11-19 -1.7 -1.0 -2.6- 90.8- 8.0 3.0---- 0.0------------
1978-11-20 -0.9 0.5 -1.4- 88.8- 7.7 2.0---- 0.0------------
1978-11-21 0.6 3.0 -1.6- 88.5- 8.0 0.7---- 0.0------------
1978-11-22 -0.8 0.0 -1.6- 89.5- 8.0 0.3---- 0.0------------
1978-11-23 -0.3 0.6 -1.2- 90.5- 8.0 1.0---- 0.7------------
1978-11-24 0.7 1.0 0.0- 90.5- 8.0 3.0---- 0.0------------
1978-11-25 2.0 4.8 0.9- 88.8- 4.0 3.0---- 0.0------------
1978-11-26 -0.1 1.8 -1.4- 91.0- 8.0 2.7---- 0.0------------
1978-11-27 1.6 7.6 -3.4- 77.3- 3.7 0.3---- 4.2------------
1978-11-28 2.1 5.3 -1.6- 92.3- 8.0 1.0---- 11.3------------
1978-11-29 -1.7 -0.5 -2.4- 88.5- 8.0 1.3---- 0.8-- 13---------
1978-11-30 -1.3 0.8 -8.3- 90.5- 8.0 0.7---- 2.2-- 14---------
1978-12-01 1.2 2.0 0.4- 93.5- 8.0 1.7---- 1.6-- 10---------
1978-12-02 -0.4 1.0 -1.6- 91.8- 8.0 1.0---- 0.2-- 8---------
1978-12-03 -3.8 -1.1 -8.1- 84.0- 5.3 0.0---- 1.2-- 8---------
1978-12-04-12.0 -7.5-15.4- 75.8- 4.3 2.3---- 0.2-- 9---------
1978-12-05-12.3-10.9-13.9- 82.3- 6.7 0.7---- 1.6-- 9---------
1978-12-06-11.9 -8.9-18.4- 80.3- 5.0 1.0---- 0.0-- 15---------
1978-12-07-17.0 -3.6-25.9- 83.0- 0.0 0.0---- 0.0-- 15---------
188.3 ms

 

Źródłem pochodzenia danych jest Instytut Meteorologii i Gospodarki Wodnej – Państwowy Instytut Badawczy. Dane Instytutu Meteorologii i Gospodarki Wodnej – Państwowego Instytutu Badawczego zostały przetworzone.

Dane źródłowe można odnaleźć na stronie https://dane.imgw.pl